createdAt,value
2017-09-21T00:01:04.168Z,10.58
2017-09-21T00:02:18.612Z,10.55
2017-09-21T00:03:32.141Z,10.58
2017-09-21T00:04:46.141Z,10.58
2017-09-21T00:06:00.848Z,10.62
2017-09-21T00:07:15.385Z,10.65
2017-09-21T00:08:29.557Z,10.61
2017-09-21T00:09:43.147Z,10.64
2017-09-21T00:10:57.771Z,10.65
2017-09-21T00:12:11.540Z,10.69
2017-09-21T00:13:25.865Z,10.59
2017-09-21T00:14:39.849Z,10.59
2017-09-21T00:15:53.530Z,10.57
2017-09-21T00:17:08.087Z,10.41
2017-09-21T00:18:22.210Z,10.39
2017-09-21T00:19:36.796Z,10.42
2017-09-21T00:20:51.817Z,10.39
2017-09-21T00:22:05.560Z,10.3
2017-09-21T00:23:19.582Z,10.25
2017-09-21T00:24:33.095Z,10.28
2017-09-21T00:25:47.380Z,10.27
2017-09-21T00:27:00.960Z,10.25
2017-09-21T00:28:15.209Z,10.31
2017-09-21T00:29:29.311Z,10.24
2017-09-21T00:30:44.255Z,10.3
2017-09-21T00:31:58.034Z,10.3
2017-09-21T00:33:11.886Z,10.27
2017-09-21T00:34:26.190Z,10.25
2017-09-21T00:35:40.168Z,10.31
2017-09-21T00:36:53.795Z,10.25
2017-09-21T00:38:08.174Z,10.27
2017-09-21T00:39:22.412Z,10.33
2017-09-21T00:40:36.245Z,10.27
2017-09-21T00:41:50.770Z,10.28
2017-09-21T00:43:04.684Z,10.23
2017-09-21T00:44:18.789Z,10.3
2017-09-21T00:45:32.662Z,10.24
2017-09-21T00:46:47.780Z,10.25
2017-09-21T00:48:01.552Z,10.27
2017-09-21T00:49:15.447Z,10.25
2017-09-21T00:50:29.468Z,10.25
2017-09-21T00:51:58.270Z,10.2
2017-09-21T00:53:11.802Z,10.24
2017-09-21T00:54:25.620Z,10.24
2017-09-21T00:55:39.597Z,10.21
2017-09-21T00:56:54.237Z,10.18
2017-09-21T00:58:08.056Z,10.18
2017-09-21T00:59:22.112Z,10.2
2017-09-21T01:00:36.639Z,10.28
2017-09-21T01:01:50.336Z,10.18
2017-09-21T01:03:03.939Z,10.2
2017-09-21T01:04:18.170Z,10.25
2017-09-21T01:05:31.996Z,10.18
2017-09-21T01:06:46.144Z,10.18
2017-09-21T01:07:59.799Z,10.21
2017-09-21T01:09:13.580Z,10.23
2017-09-21T01:10:27.472Z,10.17
2017-09-21T01:11:41.643Z,10.09
2017-09-21T01:12:55.947Z,10.17
2017-09-21T01:14:10.150Z,10.2
2017-09-21T01:15:23.944Z,10.1
2017-09-21T01:16:37.457Z,10.03
2017-09-21T01:17:51.623Z,10.06
2017-09-21T01:19:05.422Z,10.06
2017-09-21T01:20:19.553Z,10.02
2017-09-21T01:21:33.144Z,10.05
2017-09-21T01:22:47.536Z,10.09
2017-09-21T01:24:01.413Z,9.95
2017-09-21T01:25:16.664Z,10
2017-09-21T01:26:30.980Z,9.99
2017-09-21T01:27:44.736Z,9.92
2017-09-21T01:28:58.757Z,9.97
2017-09-21T01:30:13.177Z,9.95
2017-09-21T01:31:46.617Z,9.92
2017-09-21T01:33:15.414Z,9.85
2017-09-21T01:34:29.062Z,9.84
2017-09-21T01:35:42.677Z,9.88
2017-09-21T01:36:56.553Z,9.88
2017-09-21T01:38:10.045Z,9.84
2017-09-21T01:39:23.616Z,9.77
2017-09-21T01:40:37.436Z,9.77
2017-09-21T01:41:50.923Z,9.67
2017-09-21T01:43:05.469Z,9.7
2017-09-21T01:44:33.856Z,9.66
2017-09-21T01:45:47.490Z,9.77
2017-09-21T01:47:01.627Z,9.64
2017-09-21T01:48:15.567Z,9.67
2017-09-21T01:49:30.952Z,9.69
2017-09-21T01:50:46.986Z,9.54
2017-09-21T01:52:01.008Z,9.55
2017-09-21T01:53:15.456Z,9.52
2017-09-21T01:54:29.489Z,9.47
2017-09-21T01:55:43.019Z,9.48
2017-09-21T01:56:56.906Z,9.49
2017-09-21T01:58:10.723Z,9.44
2017-09-21T01:59:24.396Z,9.4
2017-09-21T02:00:38.218Z,9.45
2017-09-21T02:01:52.575Z,9.36
2017-09-21T02:03:07.080Z,9.44
2017-09-21T02:04:20.769Z,9.44
2017-09-21T02:05:34.315Z,9.39
2017-09-21T02:06:48.211Z,9.4
2017-09-21T02:08:02.573Z,9.33
2017-09-21T02:09:16.073Z,9.42
2017-09-21T02:10:29.662Z,9.31
2017-09-21T02:11:43.256Z,9.36
2017-09-21T02:12:57.306Z,9.29
2017-09-21T02:14:10.858Z,9.29
2017-09-21T02:15:24.631Z,9.24
2017-09-21T02:16:38.265Z,9.27
2017-09-21T02:17:51.986Z,9.19
2017-09-21T02:19:07.018Z,9.27
2017-09-21T02:20:20.587Z,9.26
2017-09-21T02:21:34.378Z,9.27
2017-09-21T02:22:47.877Z,9.3
2017-09-21T02:24:01.376Z,9.21
2017-09-21T02:25:15.403Z,9.19
2017-09-21T02:26:29.668Z,9.18
2017-09-21T02:27:43.781Z,9.18
2017-09-21T02:29:10.007Z,9.22
2017-09-21T02:30:23.928Z,9.18
2017-09-21T02:31:37.406Z,9.12
2017-09-21T02:32:51.023Z,9.03
2017-09-21T02:34:04.556Z,9.03
2017-09-21T02:35:18.147Z,9.05
2017-09-21T02:36:31.951Z,9.15
2017-09-21T02:37:45.491Z,9.18
2017-09-21T02:38:59.143Z,9.18
2017-09-21T02:40:12.784Z,9.24
2017-09-21T02:41:26.679Z,9.13
2017-09-21T02:42:40.566Z,9.22
2017-09-21T02:43:54.473Z,9.26
2017-09-21T02:45:07.981Z,9.16
2017-09-21T02:46:21.970Z,9.19
2017-09-21T02:47:35.481Z,9.21
2017-09-21T02:48:49.279Z,9.13
2017-09-21T02:50:03.126Z,9.22
2017-09-21T02:51:16.632Z,9.15
2017-09-21T02:52:30.251Z,9.26
2017-09-21T02:53:43.732Z,9.22
2017-09-21T02:54:57.923Z,9.09
2017-09-21T02:56:18.509Z,9.03
2017-09-21T02:57:31.992Z,8.99
2017-09-21T02:58:45.584Z,9.11
2017-09-21T02:59:59.506Z,9.03
2017-09-21T03:01:13.431Z,9.08
2017-09-21T03:02:27.544Z,8.9
2017-09-21T03:03:41.020Z,8.93
2017-09-21T03:04:54.653Z,8.92
2017-09-21T03:06:08.168Z,8.89
2017-09-21T03:07:21.964Z,8.84
2017-09-21T03:08:35.462Z,8.72
2017-09-21T03:09:49.770Z,8.86
2017-09-21T03:11:03.381Z,8.86
2017-09-21T03:12:17.007Z,8.81
2017-09-21T03:13:30.890Z,8.75
2017-09-21T03:14:44.751Z,8.68
2017-09-21T03:15:58.886Z,8.75
2017-09-21T03:17:12.792Z,8.69
2017-09-21T03:18:26.673Z,8.71
2017-09-21T03:19:40.580Z,8.68
2017-09-21T03:20:54.331Z,8.68
2017-09-21T03:22:07.855Z,8.72
2017-09-21T03:23:21.780Z,8.77
2017-09-21T03:24:35.992Z,8.79
2017-09-21T03:25:50.203Z,8.74
2017-09-21T03:27:03.783Z,8.71
2017-09-21T03:28:17.324Z,8.75
2017-09-21T03:29:30.827Z,8.63
2017-09-21T03:30:44.445Z,8.79
2017-09-21T03:31:58.282Z,8.78
2017-09-21T03:33:12.383Z,8.79
2017-09-21T03:34:25.902Z,8.63
2017-09-21T03:35:39.457Z,8.64
2017-09-21T03:36:52.967Z,8.68
2017-09-21T03:38:07.000Z,8.61
2017-09-21T03:39:20.499Z,8.61
2017-09-21T03:40:34.019Z,8.66
2017-09-21T03:41:47.733Z,8.64
2017-09-21T03:43:01.325Z,8.68
2017-09-21T03:44:15.202Z,8.61
2017-09-21T03:45:29.449Z,8.64
2017-09-21T03:46:43.038Z,8.64
2017-09-21T03:47:56.637Z,8.66
2017-09-21T03:49:10.277Z,8.6
2017-09-21T03:50:24.168Z,8.6
2017-09-21T03:51:38.074Z,8.61
2017-09-21T03:52:51.641Z,8.63
2017-09-21T03:54:05.471Z,8.59
2017-09-21T03:55:19.241Z,8.74
2017-09-21T03:56:34.188Z,8.69
2017-09-21T03:57:47.696Z,8.77
2017-09-21T03:59:01.485Z,8.77
2017-09-21T04:00:16.016Z,8.84
2017-09-21T04:01:29.620Z,8.86
2017-09-21T04:02:43.986Z,8.9
2017-09-21T04:03:57.528Z,8.86
2017-09-21T04:05:11.409Z,8.82
2017-09-21T04:06:25.316Z,8.82
2017-09-21T04:07:38.816Z,8.81
2017-09-21T04:08:53.047Z,8.72
2017-09-21T04:10:06.695Z,8.77
2017-09-21T04:11:20.339Z,8.82
2017-09-21T04:12:34.402Z,8.78
2017-09-21T04:13:48.158Z,8.77
2017-09-21T04:15:01.988Z,8.92
2017-09-21T04:16:15.731Z,8.89
2017-09-21T04:17:29.742Z,8.99
2017-09-21T04:18:44.131Z,9.02
2017-09-21T04:19:57.729Z,9.08
2017-09-21T04:21:11.987Z,9
2017-09-21T04:22:25.778Z,9.02
2017-09-21T04:23:39.568Z,8.99
2017-09-21T04:24:53.374Z,9.05
2017-09-21T04:26:07.035Z,9.03
2017-09-21T04:27:20.992Z,9.02
2017-09-21T04:28:34.964Z,8.97
2017-09-21T04:29:48.513Z,9.03
2017-09-21T04:31:02.325Z,9.19
2017-09-21T04:32:16.116Z,9.13
2017-09-21T04:33:31.054Z,9.16
2017-09-21T04:34:44.847Z,9.19
2017-09-21T04:35:58.613Z,9.3
2017-09-21T04:37:12.540Z,9.3
2017-09-21T04:38:26.222Z,9.3
2017-09-21T04:39:40.063Z,9.31
2017-09-21T04:40:53.826Z,9.44
2017-09-21T04:42:07.597Z,9.55
2017-09-21T04:43:21.932Z,9.54
2017-09-21T04:44:36.015Z,9.58
2017-09-21T04:45:50.258Z,9.49
2017-09-21T04:47:03.884Z,9.51
2017-09-21T04:48:17.666Z,9.64
2017-09-21T04:49:31.514Z,9.66
2017-09-21T04:50:45.033Z,9.74
2017-09-21T04:51:59.189Z,9.82
2017-09-21T04:53:13.093Z,9.85
2017-09-21T04:54:26.670Z,9.85
2017-09-21T04:55:40.272Z,9.87
2017-09-21T04:56:54.690Z,9.92
2017-09-21T04:58:08.502Z,9.99
2017-09-21T04:59:22.416Z,9.97
2017-09-21T05:00:36.281Z,10.02
2017-09-21T05:01:50.430Z,10.06
2017-09-21T05:03:04.072Z,10.06
2017-09-21T05:04:18.173Z,10.07
2017-09-21T05:05:32.239Z,10.12
2017-09-21T05:06:46.448Z,10.15
2017-09-21T05:07:59.965Z,10.15
2017-09-21T05:09:13.728Z,10.18
2017-09-21T05:10:27.888Z,10.15
2017-09-21T05:11:41.557Z,10.24
2017-09-21T05:12:55.145Z,10.09
2017-09-21T05:14:08.716Z,10.13
2017-09-21T05:15:22.295Z,10.03
2017-09-21T05:16:36.189Z,10.06
2017-09-21T05:17:49.737Z,10.06
2017-09-21T05:19:03.597Z,10.1
2017-09-21T05:20:17.560Z,10.18
2017-09-21T05:21:31.130Z,10.2
2017-09-21T05:22:45.176Z,10.07
2017-09-21T05:23:58.935Z,10.23
2017-09-21T05:25:12.595Z,10.24
2017-09-21T05:26:26.566Z,10.24
2017-09-21T05:27:40.161Z,10.23
2017-09-21T05:28:54.750Z,10.24
2017-09-21T05:30:08.278Z,10.3
2017-09-21T05:31:22.449Z,10.31
2017-09-21T05:32:36.214Z,10.28
2017-09-21T05:33:49.926Z,10.34
2017-09-21T05:35:05.182Z,10.34
2017-09-21T05:36:18.701Z,10.39
2017-09-21T05:37:32.604Z,10.42
2017-09-21T05:38:46.099Z,10.45
2017-09-21T05:39:59.613Z,10.43
2017-09-21T05:41:13.635Z,10.39
2017-09-21T05:42:27.490Z,10.49
2017-09-21T05:43:41.420Z,10.55
2017-09-21T05:44:55.574Z,10.55
2017-09-21T05:46:09.361Z,10.51
2017-09-21T05:47:23.770Z,10.59
2017-09-21T05:48:37.467Z,10.59
2017-09-21T05:49:51.484Z,10.61
2017-09-21T05:51:04.979Z,10.62
2017-09-21T05:52:19.251Z,10.68
2017-09-21T05:53:33.569Z,10.65
2017-09-21T05:54:47.189Z,10.68
2017-09-21T05:56:00.876Z,10.8
2017-09-21T05:57:15.047Z,10.79
2017-09-21T05:58:28.932Z,10.86
2017-09-21T05:59:42.765Z,10.95
2017-09-21T06:00:56.575Z,10.86
2017-09-21T06:02:10.275Z,10.89
2017-09-21T06:03:24.329Z,10.89
2017-09-21T06:04:38.086Z,10.98
2017-09-21T06:05:51.878Z,10.97
2017-09-21T06:07:05.447Z,11.05
2017-09-21T06:08:18.960Z,11.01
2017-09-21T06:09:32.786Z,11.1
2017-09-21T06:10:46.667Z,11.08
2017-09-21T06:12:00.542Z,11.19
2017-09-21T06:13:14.969Z,11.25
2017-09-21T06:14:29.365Z,11.23
2017-09-21T06:15:43.117Z,11.31
2017-09-21T06:16:56.715Z,11.19
2017-09-21T06:18:10.734Z,11.37
2017-09-21T06:19:24.890Z,11.33
2017-09-21T06:20:39.997Z,11.35
2017-09-21T06:21:53.569Z,11.34
2017-09-21T06:23:07.107Z,11.35
2017-09-21T06:24:21.080Z,11.41
2017-09-21T06:25:34.882Z,11.43
2017-09-21T06:26:48.422Z,11.49
2017-09-21T06:28:02.212Z,11.45
2017-09-21T06:29:16.004Z,11.53
2017-09-21T06:30:30.708Z,11.52
2017-09-21T06:31:44.557Z,11.52
2017-09-21T06:32:58.859Z,11.51
2017-09-21T06:34:12.756Z,11.44
2017-09-21T06:35:26.303Z,11.62
2017-09-21T06:36:40.236Z,11.63
2017-09-21T06:37:53.739Z,11.56
2017-09-21T06:39:07.267Z,11.56
2017-09-21T06:40:21.779Z,11.55
2017-09-21T06:41:35.289Z,11.6
2017-09-21T06:43:01.889Z,11.71
2017-09-21T06:44:15.587Z,11.55
2017-09-21T06:45:29.192Z,11.65
2017-09-21T06:46:43.007Z,11.56
2017-09-21T06:47:56.822Z,11.6
2017-09-21T06:49:10.500Z,11.63
2017-09-21T06:50:24.001Z,11.71
2017-09-21T06:51:37.900Z,11.81
2017-09-21T06:52:52.160Z,11.85
2017-09-21T06:54:05.967Z,11.89
2017-09-21T06:55:20.356Z,11.81
2017-09-21T06:56:34.838Z,11.97
2017-09-21T06:57:48.377Z,11.89
2017-09-21T06:59:01.951Z,11.93
2017-09-21T07:00:15.528Z,11.78
2017-09-21T07:01:29.535Z,12
2017-09-21T07:02:44.309Z,11.97
2017-09-21T07:03:57.921Z,11.99
2017-09-21T07:05:11.746Z,11.97
2017-09-21T07:06:25.585Z,12.1
2017-09-21T07:07:39.254Z,12.03
2017-09-21T07:08:52.748Z,12.07
2017-09-21T07:10:06.259Z,12.02
2017-09-21T07:11:19.953Z,12.07
2017-09-21T07:12:35.493Z,12.14
2017-09-21T07:13:49.105Z,12.15
2017-09-21T07:15:02.632Z,12.12
2017-09-21T07:16:16.667Z,12.15
2017-09-21T07:17:30.176Z,12.3
2017-09-21T07:18:44.062Z,12.33
2017-09-21T07:19:57.565Z,12.25
2017-09-21T07:21:11.118Z,12.25
2017-09-21T07:22:24.813Z,12.36
2017-09-21T07:23:38.466Z,12.35
2017-09-21T07:24:52.358Z,12.29
2017-09-21T07:26:05.899Z,12.26
2017-09-21T07:27:19.519Z,12.25
2017-09-21T07:28:33.016Z,12.23
2017-09-21T07:29:46.522Z,12.26
2017-09-21T07:31:00.868Z,12.29
2017-09-21T07:32:14.426Z,12.32
2017-09-21T07:33:28.575Z,12.3
2017-09-21T07:34:42.765Z,12.33
2017-09-21T07:35:56.288Z,12.26
2017-09-21T07:37:11.565Z,12.32
2017-09-21T07:38:25.235Z,12.28
2017-09-21T07:39:38.897Z,12.28
2017-09-21T07:40:52.901Z,12.37
2017-09-21T07:42:06.874Z,12.4
2017-09-21T07:43:20.809Z,12.44
2017-09-21T07:44:34.535Z,12.53
2017-09-21T07:45:48.091Z,12.55
2017-09-21T07:47:02.252Z,12.58
2017-09-21T07:48:15.854Z,12.68
2017-09-21T07:49:30.143Z,12.75
2017-09-21T07:50:43.683Z,12.68
2017-09-21T07:51:57.282Z,12.9
2017-09-21T07:53:11.225Z,12.95
2017-09-21T07:54:24.848Z,12.95
2017-09-21T07:55:38.785Z,12.93
2017-09-21T07:56:52.337Z,12.98
2017-09-21T07:58:05.914Z,12.98
2017-09-21T07:59:19.891Z,12.98
2017-09-21T08:00:33.762Z,12.98
2017-09-21T08:01:47.893Z,12.95
2017-09-21T08:03:01.775Z,12.99
2017-09-21T08:04:15.406Z,13.03
2017-09-21T08:05:29.340Z,13.11
2017-09-21T08:06:42.993Z,13.16
2017-09-21T08:07:57.043Z,13.21
2017-09-21T08:09:10.945Z,13.26
2017-09-21T08:10:24.431Z,13.27
2017-09-21T08:11:37.963Z,13.26
2017-09-21T08:12:52.399Z,13.26
2017-09-21T08:14:06.394Z,13.42
2017-09-21T08:15:20.446Z,13.39
2017-09-21T08:16:33.999Z,13.33
2017-09-21T08:17:48.018Z,13.33
2017-09-21T08:19:01.600Z,13.37
2017-09-21T08:20:15.414Z,13.39
2017-09-21T08:21:28.982Z,13.4
2017-09-21T08:22:42.474Z,13.42
2017-09-21T08:23:56.135Z,13.27
2017-09-21T08:25:10.835Z,13.33
2017-09-21T08:26:24.702Z,13.39
2017-09-21T08:27:38.522Z,13.43
2017-09-21T08:28:52.345Z,13.52
2017-09-21T08:30:06.219Z,13.57
2017-09-21T08:31:20.400Z,13.52
2017-09-21T08:32:34.623Z,13.47
2017-09-21T08:33:48.122Z,13.4
2017-09-21T08:35:01.639Z,13.39
2017-09-21T08:36:15.711Z,13.49
2017-09-21T08:37:29.213Z,13.58
2017-09-21T08:38:43.004Z,13.62
2017-09-21T08:39:57.141Z,13.62
2017-09-21T08:41:10.995Z,13.7
2017-09-21T08:42:25.402Z,13.7
2017-09-21T08:43:38.883Z,13.73
2017-09-21T08:44:52.873Z,13.83
2017-09-21T08:46:06.364Z,13.8
2017-09-21T08:47:21.125Z,13.86
2017-09-21T08:48:34.668Z,13.94
2017-09-21T08:49:48.309Z,13.89
2017-09-21T08:51:02.188Z,13.98
2017-09-21T08:52:15.731Z,14.19
2017-09-21T08:53:29.346Z,14.13
2017-09-21T08:54:43.476Z,14.2
2017-09-21T08:55:57.263Z,14.18
2017-09-21T08:57:11.867Z,14.23
2017-09-21T08:58:25.802Z,14.22
2017-09-21T08:59:39.387Z,14.2
2017-09-21T09:00:52.977Z,14.26
2017-09-21T09:02:06.485Z,14.31
2017-09-21T09:03:20.287Z,14.2
2017-09-21T09:04:33.980Z,14.41
2017-09-21T09:05:47.483Z,14.51
2017-09-21T09:07:01.017Z,14.55
2017-09-21T09:08:14.512Z,14.53
2017-09-21T09:09:28.300Z,14.66
2017-09-21T09:10:42.701Z,14.78
2017-09-21T09:11:56.420Z,14.78
2017-09-21T09:13:10.300Z,14.85
2017-09-21T09:14:23.797Z,14.94
2017-09-21T09:15:43.915Z,15.07
2017-09-21T09:16:57.553Z,15.15
2017-09-21T09:18:11.418Z,15.23
2017-09-21T09:19:24.905Z,15.12
2017-09-21T09:20:38.547Z,15.11
2017-09-21T09:21:53.008Z,15.08
2017-09-21T09:23:06.920Z,15.25
2017-09-21T09:24:21.338Z,15.36
2017-09-21T09:25:34.848Z,15.33
2017-09-21T09:26:48.344Z,15.32
2017-09-21T09:28:02.494Z,15.23
2017-09-21T09:29:16.087Z,15.1
2017-09-21T09:30:29.601Z,14.96
2017-09-21T09:31:43.610Z,14.92
2017-09-21T09:32:57.090Z,14.85
2017-09-21T09:34:10.879Z,14.81
2017-09-21T09:35:24.369Z,14.74
2017-09-21T09:36:37.876Z,14.56
2017-09-21T09:37:52.076Z,14.38
2017-09-21T09:39:05.569Z,14.48
2017-09-21T09:40:19.751Z,14.51
2017-09-21T09:41:33.351Z,14.55
2017-09-21T09:42:46.928Z,14.74
2017-09-21T09:44:00.689Z,14.89
2017-09-21T09:45:14.573Z,14.97
2017-09-21T09:46:28.788Z,15.07
2017-09-21T09:47:42.912Z,14.94
2017-09-21T09:48:56.888Z,14.9
2017-09-21T09:50:11.106Z,14.94
2017-09-21T09:51:24.774Z,15.02
2017-09-21T09:52:39.320Z,15.04
2017-09-21T09:53:52.943Z,14.81
2017-09-21T09:55:07.339Z,14.77
2017-09-21T09:56:21.061Z,14.51
2017-09-21T09:57:34.942Z,14.45
2017-09-21T09:58:51.654Z,14.43
2017-09-21T10:00:09.191Z,14.48
2017-09-21T10:01:26.003Z,14.56
2017-09-21T10:02:42.905Z,14.44
2017-09-21T10:04:01.124Z,14.38
2017-09-21T10:05:17.239Z,14.51
2017-09-21T10:06:34.085Z,14.36
2017-09-21T10:07:49.561Z,14.34
2017-09-21T10:09:04.823Z,14.34
2017-09-21T10:10:20.884Z,14.44
2017-09-21T10:11:37.528Z,14.52
2017-09-21T10:12:53.604Z,14.68
2017-09-21T10:14:10.016Z,14.73
2017-09-21T10:15:27.020Z,14.81
2017-09-21T10:16:43.605Z,14.82
2017-09-21T10:18:02.560Z,14.99
2017-09-21T10:19:21.761Z,15.05
2017-09-21T10:20:38.823Z,15.08
2017-09-21T10:21:54.527Z,15.11
2017-09-21T10:23:09.718Z,15.05
2017-09-21T10:24:25.626Z,15.08
2017-09-21T10:25:41.053Z,15.18
2017-09-21T10:26:57.126Z,15.22
2017-09-21T10:28:17.353Z,15.1
2017-09-21T10:29:34.329Z,15.08
2017-09-21T10:30:50.621Z,15.1
2017-09-21T10:32:08.476Z,15.11
2017-09-21T10:33:24.778Z,15.14
2017-09-21T10:34:40.573Z,15.11
2017-09-21T10:35:56.003Z,15.11
2017-09-21T10:37:12.310Z,15.04
2017-09-21T10:38:27.717Z,15.11
2017-09-21T10:39:43.635Z,15.18
2017-09-21T10:40:59.383Z,15.29
2017-09-21T10:42:16.255Z,15.32
2017-09-21T10:43:35.475Z,15.41
2017-09-21T10:44:51.589Z,15.5
2017-09-21T10:46:10.513Z,15.48
2017-09-21T10:47:27.816Z,15.55
2017-09-21T10:48:43.922Z,15.66
2017-09-21T10:49:58.985Z,15.75
2017-09-21T10:51:15.074Z,15.8
2017-09-21T10:52:30.791Z,15.8
2017-09-21T10:53:47.457Z,15.83
2017-09-21T10:55:01.985Z,15.8
2017-09-21T10:56:18.398Z,15.76
2017-09-21T10:57:35.298Z,15.72
2017-09-21T10:58:51.479Z,15.7
2017-09-21T11:00:09.623Z,15.7
2017-09-21T11:01:26.147Z,15.8
2017-09-21T11:02:42.406Z,15.85
2017-09-21T11:03:58.156Z,15.85
2017-09-21T11:05:14.282Z,15.91
2017-09-21T11:06:29.538Z,15.96
2017-09-21T11:07:45.078Z,15.87
2017-09-21T11:09:00.314Z,15.91
2017-09-21T11:10:16.622Z,15.91
2017-09-21T11:11:34.839Z,15.87
2017-09-21T11:12:52.101Z,16.02
2017-09-21T11:14:09.627Z,15.99
2017-09-21T11:15:45.389Z,15.96
2017-09-21T11:17:02.560Z,15.88
2017-09-21T11:18:18.434Z,16.02
2017-09-21T11:19:34.201Z,16.03
2017-09-21T11:20:49.650Z,16.09
2017-09-21T11:22:06.351Z,16.12
2017-09-21T11:23:21.287Z,16.22
2017-09-21T11:24:38.676Z,16.26
2017-09-21T11:25:55.419Z,16.18
2017-09-21T11:27:12.385Z,16.21
2017-09-21T11:28:29.442Z,16.21
2017-09-21T11:29:46.998Z,16.22
2017-09-21T11:31:03.080Z,16.18
2017-09-21T11:32:19.490Z,16.17
2017-09-21T11:33:35.393Z,16.41
2017-09-21T11:34:51.622Z,16.47
2017-09-21T11:36:07.416Z,16.49
2017-09-21T11:37:22.629Z,16.46
2017-09-21T11:38:40.271Z,16.46
2017-09-21T11:39:58.450Z,16.51
2017-09-21T11:41:14.233Z,16.64
2017-09-21T11:42:31.702Z,16.58
2017-09-21T11:43:49.019Z,16.57
2017-09-21T11:45:04.985Z,16.54
2017-09-21T11:46:20.776Z,16.59
2017-09-21T11:47:37.424Z,16.72
2017-09-21T11:48:53.858Z,16.69
2017-09-21T11:50:08.435Z,16.66
2017-09-21T11:51:23.693Z,16.77
2017-09-21T11:52:41.629Z,16.82
2017-09-21T11:53:57.742Z,16.66
2017-09-21T11:55:14.188Z,16.76
2017-09-21T11:56:30.955Z,16.8
2017-09-21T11:57:47.742Z,16.82
2017-09-21T11:59:03.144Z,16.84
2017-09-21T12:00:19.751Z,16.82
2017-09-21T12:01:35.017Z,16.87
2017-09-21T12:02:49.829Z,16.91
2017-09-21T12:04:05.988Z,16.87
2017-09-21T12:05:21.913Z,16.94
2017-09-21T12:06:40.622Z,16.92
2017-09-21T12:07:57.494Z,16.94
2017-09-21T12:09:14.266Z,16.89
2017-09-21T12:10:50.224Z,16.99
2017-09-21T12:12:07.655Z,17.05
2017-09-21T12:13:24.772Z,17.05
2017-09-21T12:14:40.532Z,17.1
2017-09-21T12:16:09.413Z,17.13
2017-09-21T12:17:25.305Z,17.23
2017-09-21T12:18:41.412Z,17.32
2017-09-21T12:19:58.092Z,17.31
2017-09-21T12:21:14.617Z,17.39
2017-09-21T12:22:31.225Z,17.38
2017-09-21T12:23:47.713Z,17.35
2017-09-21T12:25:04.592Z,17.31
2017-09-21T12:26:20.954Z,17.38
2017-09-21T12:27:37.824Z,17.59
2017-09-21T12:28:53.538Z,17.6
2017-09-21T12:30:13.003Z,17.53
2017-09-21T12:31:28.868Z,17.54
2017-09-21T12:32:44.424Z,17.63
2017-09-21T12:34:00.151Z,17.63
2017-09-21T12:35:17.007Z,17.72
2017-09-21T12:36:34.571Z,17.69
2017-09-21T12:37:52.456Z,17.63
2017-09-21T12:39:10.378Z,17.66
2017-09-21T12:40:28.659Z,17.69
2017-09-21T12:41:45.025Z,17.56
2017-09-21T12:43:00.438Z,17.54
2017-09-21T12:44:17.475Z,17.72
2017-09-21T12:45:32.862Z,17.78
2017-09-21T12:46:48.910Z,17.79
2017-09-21T12:48:06.676Z,17.84
2017-09-21T12:49:23.514Z,17.88
2017-09-21T12:50:40.805Z,17.94
2017-09-21T12:51:59.245Z,18
2017-09-21T12:53:16.811Z,17.93
2017-09-21T12:54:35.050Z,18.11
2017-09-21T12:55:50.718Z,18.11
2017-09-21T12:57:05.928Z,18.21
2017-09-21T12:58:22.389Z,18.08
2017-09-21T12:59:38.116Z,18.18
2017-09-21T13:00:54.815Z,18.24
2017-09-21T13:02:11.379Z,18.18
2017-09-21T13:03:34.645Z,18.05
2017-09-21T13:04:58.113Z,17.95
2017-09-21T13:06:14.510Z,17.88
2017-09-21T13:07:31.821Z,17.84
2017-09-21T13:08:50.850Z,17.76
2017-09-21T13:10:07.084Z,17.87
2017-09-21T13:11:22.292Z,17.87
2017-09-21T13:12:38.511Z,17.88
2017-09-21T13:13:53.510Z,18
2017-09-21T13:15:09.752Z,18.02
2017-09-21T13:16:24.650Z,18.11
2017-09-21T13:17:41.289Z,18.06
2017-09-21T13:18:59.062Z,18.11
2017-09-21T13:20:15.946Z,18.16
2017-09-21T13:21:33.277Z,18.16
2017-09-21T13:22:51.034Z,18.21
2017-09-21T13:24:07.217Z,18.13
2017-09-21T13:25:23.935Z,18.27
2017-09-21T13:26:38.812Z,18.28
2017-09-21T13:27:54.192Z,18.3
2017-09-21T13:29:12.316Z,18.41
2017-09-21T13:30:28.515Z,18.37
2017-09-21T13:31:45.242Z,18.43
2017-09-21T13:33:02.280Z,18.45
2017-09-21T13:34:19.380Z,18.43
2017-09-21T13:35:37.963Z,18.48
2017-09-21T13:36:54.750Z,18.46
2017-09-21T13:38:11.944Z,18.55
2017-09-21T13:39:27.599Z,18.61
2017-09-21T13:40:42.240Z,18.58
2017-09-21T13:41:57.481Z,18.57
2017-09-21T13:43:13.143Z,18.43
2017-09-21T13:44:27.741Z,18.49
2017-09-21T13:45:50.786Z,18.55
2017-09-21T13:47:07.751Z,18.57
2017-09-21T13:48:23.995Z,18.57
2017-09-21T13:49:47.932Z,18.61
2017-09-21T13:51:04.898Z,18.57
2017-09-21T13:52:33.268Z,18.64
2017-09-21T13:53:51.396Z,18.58
2017-09-21T13:55:07.864Z,18.64
2017-09-21T13:56:23.391Z,18.64
2017-09-21T13:57:38.277Z,18.67
2017-09-21T13:58:53.469Z,18.6
2017-09-21T14:00:10.261Z,18.64
2017-09-21T14:01:27.435Z,18.66
2017-09-21T14:02:44.808Z,18.57
2017-09-21T14:04:02.679Z,18.81
2017-09-21T14:05:33.983Z,18.76
2017-09-21T14:06:51.032Z,18.88
2017-09-21T14:08:08.546Z,18.78
2017-09-21T14:09:25.383Z,18.83
2017-09-21T14:10:41.263Z,18.74
2017-09-21T14:11:56.570Z,18.81
2017-09-21T14:13:13.634Z,18.86
2017-09-21T14:14:32.977Z,18.82
2017-09-21T14:15:49.085Z,18.94
2017-09-21T14:17:06.321Z,18.85
2017-09-21T14:18:22.970Z,18.86
2017-09-21T14:19:39.903Z,18.79
2017-09-21T14:20:57.135Z,18.81
2017-09-21T14:22:12.382Z,18.82
2017-09-21T14:23:28.507Z,18.88
2017-09-21T14:24:44.177Z,18.91
2017-09-21T14:25:59.240Z,18.88
2017-09-21T14:27:14.237Z,18.96
2017-09-21T14:28:30.049Z,19.04
2017-09-21T14:29:49.137Z,19.07
2017-09-21T14:31:05.069Z,19.16
2017-09-21T14:32:21.542Z,19.17
2017-09-21T14:33:37.726Z,19.19
2017-09-21T14:34:54.623Z,19.26
2017-09-21T14:36:10.246Z,19.12
2017-09-21T14:37:26.605Z,19.2
2017-09-21T14:38:43.106Z,19.29
2017-09-21T14:39:59.626Z,19.15
2017-09-21T14:41:15.707Z,19.09
2017-09-21T14:42:32.800Z,19.09
2017-09-21T14:43:51.177Z,19.16
2017-09-21T14:45:08.897Z,19.24
2017-09-21T14:46:25.688Z,19.2
2017-09-21T14:47:42.122Z,19.29
2017-09-21T14:48:59.648Z,19.2
2017-09-21T14:50:16.067Z,19.24
2017-09-21T14:51:30.690Z,19.15
2017-09-21T14:52:46.259Z,19.17
2017-09-21T14:54:01.970Z,19.17
2017-09-21T14:55:18.431Z,19.15
2017-09-21T14:56:34.612Z,19.19
2017-09-21T14:57:51.002Z,19.23
2017-09-21T14:59:07.826Z,19.27
2017-09-21T15:00:26.787Z,19.29
2017-09-21T15:01:44.713Z,19.32
2017-09-21T15:03:03.847Z,19.32
2017-09-21T15:04:20.067Z,19.35
2017-09-21T15:05:36.899Z,19.41
2017-09-21T15:06:54.020Z,19.39
2017-09-21T15:08:10.570Z,19.42
2017-09-21T15:09:26.143Z,19.38
2017-09-21T15:10:42.673Z,19.41
2017-09-21T15:12:31.629Z,19.38
2017-09-21T15:13:49.100Z,19.34
2017-09-21T15:15:06.010Z,19.37
2017-09-21T15:16:22.492Z,19.39
2017-09-21T15:17:40.088Z,19.44
2017-09-21T15:18:55.971Z,19.38
2017-09-21T15:20:10.901Z,19.37
2017-09-21T15:21:28.236Z,19.41
2017-09-21T15:22:45.139Z,19.44
2017-09-21T15:24:01.324Z,19.38
2017-09-21T15:25:18.441Z,19.52
2017-09-21T15:26:36.914Z,19.47
2017-09-21T15:27:54.129Z,19.44
2017-09-21T15:29:11.496Z,19.41
2017-09-21T15:30:28.084Z,19.41
2017-09-21T15:31:45.130Z,19.34
2017-09-21T15:33:01.794Z,19.3
2017-09-21T15:34:17.084Z,19.3
2017-09-21T15:35:32.762Z,19.3
2017-09-21T15:36:57.419Z,19.35
2017-09-21T15:38:13.176Z,19.35
2017-09-21T15:39:29.101Z,19.37
2017-09-21T15:40:59.827Z,19.37
2017-09-21T15:42:17.939Z,19.42
2017-09-21T15:43:35.877Z,19.41
2017-09-21T15:44:53.300Z,19.35
2017-09-21T15:46:11.134Z,19.34
2017-09-21T15:47:28.097Z,19.37
2017-09-21T15:48:44.093Z,19.26
2017-09-21T15:50:01.726Z,19.26
2017-09-21T15:51:18.484Z,19.37
2017-09-21T15:52:56.147Z,19.24
2017-09-21T15:54:12.060Z,19.29
2017-09-21T15:55:31.086Z,19.29
2017-09-21T15:56:49.184Z,19.37
2017-09-21T15:58:05.586Z,19.3
2017-09-21T15:59:23.597Z,19.3
2017-09-21T16:00:40.681Z,19.34
2017-09-21T16:01:55.546Z,19.32
2017-09-21T16:03:11.826Z,19.38
2017-09-21T16:04:28.094Z,19.3
2017-09-21T16:06:46.984Z,19.26
2017-09-21T16:08:03.843Z,19.24
2017-09-21T16:09:19.846Z,19.12
2017-09-21T16:10:36.827Z,19.27
2017-09-21T16:11:53.966Z,19.08
2017-09-21T16:13:11.333Z,19.19
2017-09-21T16:14:28.418Z,19.12
2017-09-21T16:15:44.283Z,19.15
2017-09-21T16:16:59.909Z,19.11
2017-09-21T16:18:17.009Z,19.07
2017-09-21T16:19:32.822Z,19.01
2017-09-21T16:20:50.593Z,19.07